createdAt,value
2019-05-07T00:01:52.650Z,100915.06
2019-05-07T00:04:19.770Z,100915.64
2019-05-07T00:06:52.788Z,100913.05
2019-05-07T00:09:23.252Z,100917.91
2019-05-07T00:11:53.351Z,100916.75
2019-05-07T00:14:23.162Z,100914.09
2019-05-07T00:16:53.443Z,100913.73
2019-05-07T00:19:23.166Z,100913.33
2019-05-07T00:21:52.754Z,100912.57
2019-05-07T00:24:22.429Z,100905.52
2019-05-07T00:26:53.160Z,100907.78
2019-05-07T00:29:22.380Z,100909.80
2019-05-07T00:31:52.061Z,100904.94
2019-05-07T00:34:22.443Z,100908.92
2019-05-07T00:37:08.415Z,100907.20
2019-05-07T00:39:44.805Z,100911.66
2019-05-07T00:42:30.119Z,100908.64
2019-05-07T00:45:20.470Z,100910.83
2019-05-07T00:47:47.231Z,100908.92
2019-05-07T00:50:17.446Z,100904.17
2019-05-07T00:52:46.016Z,100908.53
2019-05-07T00:55:14.612Z,100906.27
2019-05-07T00:57:43.211Z,100907.20
2019-05-07T01:00:13.078Z,100908.92
2019-05-07T01:02:43.101Z,100914.83
2019-05-07T01:05:12.384Z,100908.23
2019-05-07T01:07:41.929Z,100908.34
2019-05-07T01:10:12.707Z,100907.19
2019-05-07T01:12:42.279Z,100914.38
2019-05-07T01:15:12.859Z,100903.94
2019-05-07T01:17:42.523Z,100907.53
2019-05-07T01:20:12.534Z,100908.86
2019-05-07T01:22:42.431Z,100904.11
2019-05-07T01:25:12.881Z,100899.16
2019-05-07T01:27:42.697Z,100904.01
2019-05-07T01:30:12.939Z,100901.45
2019-05-07T01:32:53.221Z,100905.52
2019-05-07T01:35:26.740Z,100899.03
2019-05-07T01:37:55.315Z,100899.70
2019-05-07T01:40:23.887Z,100906.30
2019-05-07T01:42:52.986Z,100910.27
2019-05-07T01:45:22.451Z,100901.84
2019-05-07T01:47:53.144Z,100904.53
2019-05-07T01:50:22.704Z,100903.70
2019-05-07T01:52:52.261Z,100898.83
2019-05-07T01:55:22.612Z,100904.64
2019-05-07T01:57:52.272Z,100907.03
2019-05-07T02:00:22.441Z,100911.91
2019-05-07T02:02:52.745Z,100912.02
2019-05-07T02:05:29.161Z,100909.08
2019-05-07T02:07:59.382Z,100909.96
2019-05-07T02:10:35.789Z,100907.72
2019-05-07T02:13:04.521Z,100904.61
2019-05-07T02:15:33.113Z,100906.41
2019-05-07T02:18:02.080Z,100907.18
2019-05-07T02:20:32.224Z,100916.26
2019-05-07T02:23:02.781Z,100911.25
2019-05-07T02:25:32.735Z,100908.91
2019-05-07T02:28:02.197Z,100907.73
2019-05-07T02:30:34.585Z,100905.63
2019-05-07T02:33:03.758Z,100904.37
2019-05-07T02:35:33.384Z,100904.45
2019-05-07T02:38:09.251Z,100905.02
2019-05-07T02:40:39.476Z,100904.61
2019-05-07T02:43:08.066Z,100909.36
2019-05-07T02:45:43.791Z,100908.84
2019-05-07T02:48:12.892Z,100902.11
2019-05-07T02:50:55.388Z,100907.52
2019-05-07T02:53:33.805Z,100909.77
2019-05-07T02:56:03.757Z,100906.03
2019-05-07T02:58:33.053Z,100908.13
2019-05-07T03:01:04.798Z,100907.91
2019-05-07T03:03:33.446Z,100903.81
2019-05-07T03:06:02.973Z,100899.13
2019-05-07T03:08:33.028Z,100902.88
2019-05-07T03:11:03.271Z,100902.56
2019-05-07T03:13:33.605Z,100894.67
2019-05-07T03:16:03.810Z,100896.40
2019-05-07T03:18:33.618Z,100897.58
2019-05-07T03:21:06.982Z,100898.29
2019-05-07T03:23:37.135Z,100892.80
2019-05-07T03:26:07.395Z,100893.45
2019-05-07T03:28:53.976Z,100889.14
2019-05-07T03:31:27.358Z,100893.22
2019-05-07T03:33:57.479Z,100892.42
2019-05-07T03:36:46.713Z,100892.52
2019-05-07T03:39:14.041Z,100892.20
2019-05-07T03:41:43.386Z,100890.08
2019-05-07T03:44:14.257Z,100881.39
2019-05-07T03:46:56.787Z,100888.52
2019-05-07T03:49:34.076Z,100889.91
2019-05-07T03:52:04.186Z,100889.13
2019-05-07T03:54:33.938Z,100895.34
2019-05-07T03:57:10.332Z,100891.05
2019-05-07T03:59:34.227Z,100889.86
2019-05-07T04:02:03.387Z,100886.94
2019-05-07T04:04:33.245Z,100885.66
2019-05-07T04:07:03.378Z,100890.73
2019-05-07T04:09:33.393Z,100885.72
2019-05-07T04:12:03.965Z,100886.42
2019-05-07T04:14:34.468Z,100880.14
2019-05-07T04:17:14.302Z,100878.19
2019-05-07T04:19:33.305Z,100882.01
2019-05-07T04:22:04.387Z,100879.95
2019-05-07T04:24:33.831Z,100878.81
2019-05-07T04:27:16.048Z,100877.89
2019-05-07T04:29:44.616Z,100872.50
2019-05-07T04:32:14.533Z,100873.89
2019-05-07T04:34:54.067Z,100878.81
2019-05-07T04:37:23.990Z,100877.19
2019-05-07T04:39:53.704Z,100880.52
2019-05-07T04:42:24.760Z,100879.72
2019-05-07T04:44:54.152Z,100881.44
2019-05-07T04:47:36.932Z,100886.99
2019-05-07T04:49:53.677Z,100889.85
2019-05-07T04:52:38.581Z,100892.24
2019-05-07T04:55:06.789Z,100884.80
2019-05-07T04:57:35.306Z,100894.04
2019-05-07T05:00:05.583Z,100893.43
2019-05-07T05:02:44.763Z,100883.21
2019-05-07T05:05:14.029Z,100883.66
2019-05-07T05:07:43.219Z,100881.99
2019-05-07T05:10:13.414Z,100885.60
2019-05-07T05:12:42.949Z,100885.19
2019-05-07T05:15:12.624Z,100884.27
2019-05-07T05:17:49.968Z,100886.47
2019-05-07T05:20:15.584Z,100876.63
2019-05-07T05:22:45.791Z,100884.05
2019-05-07T05:25:16.312Z,100885.99
2019-05-07T05:27:44.888Z,100879.55
2019-05-07T05:30:32.689Z,100883.83
2019-05-07T05:33:04.268Z,100883.77
2019-05-07T05:35:32.190Z,100879.35
2019-05-07T05:38:02.912Z,100883.82
2019-05-07T05:40:31.959Z,100877.37
2019-05-07T05:43:18.698Z,100877.72
2019-05-07T05:45:48.899Z,100880.72
2019-05-07T05:48:17.473Z,100882.73
2019-05-07T05:50:47.689Z,100885.05
2019-05-07T05:53:29.902Z,100890.56
2019-05-07T05:56:02.266Z,100877.08
2019-05-07T05:58:35.035Z,100885.86
2019-05-07T06:01:22.583Z,100884.55
2019-05-07T06:03:58.917Z,100884.81
2019-05-07T06:06:29.129Z,100889.24
2019-05-07T06:09:15.843Z,100881.64
2019-05-07T06:11:46.073Z,100889.30
2019-05-07T06:14:16.432Z,100887.96
2019-05-07T06:16:46.792Z,100879.67
2019-05-07T06:19:17.005Z,100888.83
2019-05-07T06:22:03.200Z,100882.41
2019-05-07T06:24:39.053Z,100891.11
2019-05-07T06:27:07.717Z,100889.30
2019-05-07T06:29:36.326Z,100888.31
2019-05-07T06:32:09.123Z,100891.56
2019-05-07T06:34:37.746Z,100890.76
2019-05-07T06:37:06.319Z,100886.09
2019-05-07T06:39:48.720Z,100895.22
2019-05-07T06:42:22.224Z,100891.11
2019-05-07T06:45:08.660Z,100894.77
2019-05-07T06:47:37.303Z,100894.17
2019-05-07T06:50:07.557Z,100898.70
2019-05-07T06:52:36.187Z,100893.73
2019-05-07T06:55:06.055Z,100889.92
2019-05-07T06:57:35.298Z,100888.42
2019-05-07T07:00:06.926Z,100889.00
2019-05-07T07:02:52.558Z,100887.23
2019-05-07T07:05:26.026Z,100888.27
2019-05-07T07:07:59.344Z,100887.87
2019-05-07T07:10:29.608Z,100885.52
2019-05-07T07:12:58.193Z,100880.03
2019-05-07T07:15:26.799Z,100883.11
2019-05-07T07:17:55.380Z,100880.89
2019-05-07T07:20:24.090Z,100881.11
2019-05-07T07:22:52.679Z,100882.09
2019-05-07T07:25:22.938Z,100882.64
2019-05-07T07:27:52.155Z,100877.97
2019-05-07T07:30:25.346Z,100872.69
2019-05-07T07:32:55.594Z,100866.74
2019-05-07T07:35:24.373Z,100864.86
2019-05-07T07:37:53.146Z,100861.99
2019-05-07T07:40:32.681Z,100857.77
2019-05-07T07:43:04.898Z,100863.20
2019-05-07T07:45:32.439Z,100863.30
2019-05-07T07:48:02.325Z,100858.31
2019-05-07T07:50:33.043Z,100860.54
2019-05-07T07:53:02.491Z,100859.89
2019-05-07T07:55:33.137Z,100852.30
2019-05-07T07:58:06.678Z,100860.25
2019-05-07T08:00:39.661Z,100858.19
2019-05-07T08:03:10.012Z,100850.27
2019-05-07T08:05:38.834Z,100855.66
2019-05-07T08:08:07.415Z,100850.71
2019-05-07T08:10:36.001Z,100848.17
2019-05-07T08:13:04.680Z,100847.41
2019-05-07T08:15:33.363Z,100848.31
2019-05-07T08:18:02.920Z,100848.80
2019-05-07T08:20:32.604Z,100845.34
2019-05-07T08:23:02.942Z,100852.92
2019-05-07T08:25:52.224Z,100843.84
2019-05-07T08:28:23.280Z,100847.33
2019-05-07T08:30:53.383Z,100851.69
2019-05-07T08:33:26.682Z,100843.51
2019-05-07T08:35:56.899Z,100841.19
2019-05-07T08:38:25.480Z,100836.06
2019-05-07T08:40:54.053Z,100840.73
2019-05-07T08:43:22.675Z,100840.68
2019-05-07T08:46:09.184Z,100840.02
2019-05-07T08:48:39.393Z,100837.03
2019-05-07T08:51:08.075Z,100841.98
2019-05-07T08:53:36.648Z,100836.42
2019-05-07T08:56:05.250Z,100845.62
2019-05-07T08:58:33.993Z,100840.23
2019-05-07T09:01:03.163Z,100841.83
2019-05-07T09:03:44.028Z,100836.37
2019-05-07T09:06:17.300Z,100840.50
2019-05-07T09:08:45.876Z,100835.03
2019-05-07T09:11:14.458Z,100831.97
2019-05-07T09:13:43.043Z,100828.19
2019-05-07T09:16:12.898Z,100829.42
2019-05-07T09:18:42.229Z,100826.26
2019-05-07T09:21:12.580Z,100834.17
2019-05-07T09:23:42.389Z,100830.39
2019-05-07T09:26:13.100Z,100830.28
2019-05-07T09:28:59.554Z,100823.66
2019-05-07T09:31:35.805Z,100827.58
2019-05-07T09:34:04.384Z,100825.36
2019-05-07T09:36:37.567Z,100828.28
2019-05-07T09:39:07.734Z,100827.76
2019-05-07T09:41:36.351Z,100821.55
2019-05-07T09:44:05.033Z,100814.11
2019-05-07T09:46:33.681Z,100816.83
2019-05-07T09:49:03.140Z,100809.75
2019-05-07T09:51:32.290Z,100808.01
2019-05-07T09:54:02.526Z,100808.23
2019-05-07T09:56:32.014Z,100800.38
2019-05-07T09:59:02.212Z,100800.06
2019-05-07T10:01:31.941Z,100800.67
2019-05-07T10:04:02.652Z,100793.42
2019-05-07T10:06:32.059Z,100790.23
2019-05-07T10:09:02.881Z,100779.97
2019-05-07T10:11:35.935Z,100774.38
2019-05-07T10:14:12.618Z,100780.28
2019-05-07T10:16:48.882Z,100779.55
2019-05-07T10:19:17.477Z,100775.86
2019-05-07T10:21:46.108Z,100765.15
2019-05-07T10:24:14.799Z,100763.78
2019-05-07T10:26:43.391Z,100765.00
2019-05-07T10:29:12.583Z,100772.30
2019-05-07T10:31:42.397Z,100767.73
2019-05-07T10:34:12.348Z,100760.25
2019-05-07T10:36:42.149Z,100760.93
2019-05-07T10:39:12.909Z,100757.38
2019-05-07T10:41:42.480Z,100753.98
2019-05-07T10:44:12.342Z,100761.12
2019-05-07T10:46:42.911Z,100756.67
2019-05-07T10:49:22.650Z,100748.97
2019-05-07T10:51:51.779Z,100748.76
2019-05-07T10:54:21.857Z,100752.78
2019-05-07T10:56:52.436Z,100749.89
2019-05-07T10:59:22.542Z,100742.22
2019-05-07T11:02:09.057Z,100735.37
2019-05-07T11:04:42.589Z,100738.87
2019-05-07T11:07:08.137Z,100730.78
2019-05-07T11:09:36.735Z,100728.62
2019-05-07T11:12:05.309Z,100725.29
2019-05-07T11:14:33.906Z,100734.87
2019-05-07T11:17:16.376Z,100732.09
2019-05-07T11:19:45.057Z,100725.94
2019-05-07T11:22:13.638Z,100717.01
2019-05-07T11:24:42.735Z,100716.92
2019-05-07T11:27:11.973Z,100713.89
2019-05-07T11:29:42.834Z,100714.52
2019-05-07T11:32:12.339Z,100709.71
2019-05-07T11:34:42.487Z,100700.09
2019-05-07T11:37:11.950Z,100702.42
2019-05-07T11:39:42.664Z,100702.42
2019-05-07T11:42:22.035Z,100695.23
2019-05-07T11:44:54.943Z,100698.73
2019-05-07T11:47:35.739Z,100697.32
2019-05-07T11:50:14.686Z,100693.71
2019-05-07T11:52:45.267Z,100693.37
2019-05-07T11:55:13.947Z,100690.16
2019-05-07T11:57:44.451Z,100683.56
2019-05-07T12:00:16.329Z,100678.16
2019-05-07T12:02:47.272Z,100678.05
2019-05-07T12:05:15.215Z,100675.56
2019-05-07T12:07:43.893Z,100675.46
2019-05-07T12:10:12.577Z,100672.26
2019-05-07T12:12:42.825Z,100673.86
2019-05-07T12:15:12.485Z,100665.53
2019-05-07T12:17:42.928Z,100671.19
2019-05-07T12:20:12.873Z,100660.78
2019-05-07T12:22:47.990Z,100656.14
2019-05-07T12:25:20.947Z,100654.08
2019-05-07T12:27:52.264Z,100647.17
2019-05-07T12:30:42.671Z,100645.81
2019-05-07T12:33:29.056Z,100654.56
2019-05-07T12:35:57.735Z,100644.77
2019-05-07T12:38:26.314Z,100637.73
2019-05-07T12:40:54.960Z,100653.34
2019-05-07T12:43:23.555Z,100643.55
2019-05-07T12:45:52.553Z,100638.91
2019-05-07T12:48:21.847Z,100631.78
2019-05-07T12:50:52.274Z,100624.98
2019-05-07T12:53:28.636Z,100627.97
2019-05-07T12:56:02.191Z,100634.90
2019-05-07T12:58:32.277Z,100646.23
2019-05-07T13:01:05.583Z,100636.23
2019-05-07T13:03:38.615Z,100630.59
2019-05-07T13:06:07.360Z,100639.72
2019-05-07T13:08:35.933Z,100630.08
2019-05-07T13:11:04.718Z,100634.43
2019-05-07T13:13:33.498Z,100629.20
2019-05-07T13:16:02.945Z,100628.53
2019-05-07T13:18:32.095Z,100630.19
2019-05-07T13:21:02.442Z,100630.58
2019-05-07T13:23:31.815Z,100624.88
2019-05-07T13:26:02.623Z,100631.54
2019-05-07T13:28:30.839Z,100630.66
2019-05-07T13:30:59.434Z,100628.31
2019-05-07T13:33:29.114Z,100626.23
2019-05-07T13:35:57.816Z,100627.83
2019-05-07T13:38:28.524Z,100629.00
2019-05-07T13:40:58.991Z,100624.63
2019-05-07T13:43:38.528Z,100625.41
2019-05-07T13:46:08.785Z,100617.84
2019-05-07T13:48:39.099Z,100618.85
2019-05-07T13:51:07.705Z,100614.61
2019-05-07T13:53:36.321Z,100609.79
2019-05-07T13:56:05.046Z,100610.41
2019-05-07T13:58:33.654Z,100605.39
2019-05-07T14:01:04.884Z,100607.13
2019-05-07T14:03:33.739Z,100599.81
2019-05-07T14:06:04.555Z,100608.03
2019-05-07T14:08:34.642Z,100594.15
2019-05-07T14:11:03.290Z,100602.01
2019-05-07T14:13:31.946Z,100594.31
2019-05-07T14:16:05.163Z,100589.24
2019-05-07T14:18:34.150Z,100584.34
2019-05-07T14:21:04.481Z,100573.81
2019-05-07T14:23:33.617Z,100575.13
2019-05-07T14:26:02.474Z,100569.42
2019-05-07T14:28:32.630Z,100564.47
2019-05-07T14:31:01.936Z,100568.92
2019-05-07T14:33:38.006Z,100555.87
2019-05-07T14:36:08.230Z,100552.01
2019-05-07T14:38:38.468Z,100553.80
2019-05-07T14:41:07.052Z,100546.10
2019-05-07T14:43:53.813Z,100543.83
2019-05-07T14:46:22.752Z,100544.88
2019-05-07T14:48:52.108Z,100543.40
2019-05-07T14:51:22.068Z,100541.08
2019-05-07T14:53:50.785Z,100538.15
2019-05-07T14:56:19.353Z,100536.74
2019-05-07T14:58:47.973Z,100531.86
2019-05-07T15:01:16.633Z,100537.36
2019-05-07T15:03:45.263Z,100531.69
2019-05-07T15:06:13.857Z,100522.63
2019-05-07T15:08:43.044Z,100527.34
2019-05-07T15:11:11.942Z,100514.15
2019-05-07T15:13:42.749Z,100516.44
2019-05-07T15:16:12.509Z,100516.64
2019-05-07T15:18:43.941Z,100509.47
2019-05-07T15:21:13.446Z,100505.39
2019-05-07T15:23:42.608Z,100505.92
2019-05-07T15:26:12.856Z,100497.20
2019-05-07T15:28:43.261Z,100503.75
2019-05-07T15:31:16.353Z,100494.97
2019-05-07T15:33:45.099Z,100497.66
2019-05-07T15:36:13.697Z,100492.66
2019-05-07T15:38:42.883Z,100493.78
2019-05-07T15:41:12.493Z,100488.72
2019-05-07T15:43:45.374Z,100487.37
2019-05-07T15:46:12.175Z,100484.67
2019-05-07T15:48:42.014Z,100485.79
2019-05-07T15:51:11.857Z,100478.39
2019-05-07T15:53:54.655Z,100482.23
2019-05-07T15:56:23.257Z,100477.23
2019-05-07T15:58:51.891Z,100471.09
2019-05-07T16:01:22.197Z,100469.00
2019-05-07T16:03:54.381Z,100465.56
2019-05-07T16:06:22.031Z,100464.50
2019-05-07T16:08:52.366Z,100462.41
2019-05-07T16:11:23.203Z,100458.00
2019-05-07T16:14:05.212Z,100457.67
2019-05-07T16:16:35.461Z,100452.22
2019-05-07T16:19:06.482Z,100448.03
2019-05-07T16:21:35.051Z,100447.88
2019-05-07T16:24:04.223Z,100444.48
2019-05-07T16:26:32.865Z,100441.40
2019-05-07T16:29:04.395Z,100441.33
2019-05-07T16:31:33.214Z,100439.59
2019-05-07T16:34:02.608Z,100445.28
2019-05-07T16:36:32.891Z,100431.73
2019-05-07T16:39:03.443Z,100436.30
2019-05-07T16:41:31.994Z,100438.47
2019-05-07T16:44:02.704Z,100432.78
2019-05-07T16:46:30.896Z,100429.20
2019-05-07T16:48:59.484Z,100424.49
2019-05-07T16:51:28.070Z,100424.47
2019-05-07T16:53:56.579Z,100420.48
2019-05-07T16:56:25.170Z,100425.47
2019-05-07T16:58:55.393Z,100421.52
2019-05-07T17:01:24.641Z,100425.31
2019-05-07T17:03:55.158Z,100417.64
2019-05-07T17:06:25.245Z,100416.22
2019-05-07T17:08:55.830Z,100414.59
2019-05-07T17:11:24.714Z,100416.75
2019-05-07T17:13:53.396Z,100417.41
2019-05-07T17:16:22.787Z,100412.11
2019-05-07T17:18:51.982Z,100413.04
2019-05-07T17:21:21.816Z,100404.55
2019-05-07T17:23:51.889Z,100406.27
2019-05-07T17:26:20.678Z,100408.09
2019-05-07T17:28:49.272Z,100402.30
2019-05-07T17:31:17.847Z,100402.38
2019-05-07T17:33:46.457Z,100401.68
2019-05-07T17:36:15.237Z,100406.61
2019-05-07T17:38:43.833Z,100404.20
2019-05-07T17:41:19.973Z,100397.27
2019-05-07T17:43:43.000Z,100406.99
2019-05-07T17:46:12.282Z,100400.83
2019-05-07T17:48:42.793Z,100406.89
2019-05-07T17:51:13.418Z,100405.27
2019-05-07T17:53:55.855Z,100406.96
2019-05-07T17:56:12.899Z,100404.77
2019-05-07T17:58:42.673Z,100403.97
2019-05-07T18:01:12.526Z,100404.67
2019-05-07T18:03:42.883Z,100399.91
2019-05-07T18:06:12.559Z,100398.12
2019-05-07T18:08:42.130Z,100395.87
2019-05-07T18:11:20.264Z,100399.80
2019-05-07T18:13:42.607Z,100391.09
2019-05-07T18:16:15.724Z,100388.03
2019-05-07T18:18:44.309Z,100388.09
2019-05-07T18:21:13.001Z,100389.16
2019-05-07T18:23:41.655Z,100390.00
2019-05-07T18:26:13.563Z,100377.64
2019-05-07T18:28:41.743Z,100376.16
2019-05-07T18:31:12.635Z,100375.86
2019-05-07T18:33:49.632Z,100381.34
2019-05-07T18:36:19.072Z,100382.80
2019-05-07T18:38:47.757Z,100383.25
2019-05-07T18:41:16.524Z,100383.46
2019-05-07T18:43:45.859Z,100383.89
2019-05-07T18:46:15.366Z,100380.60
2019-05-07T18:48:46.667Z,100381.98
2019-05-07T18:51:15.657Z,100377.13
2019-05-07T18:53:44.713Z,100384.08
2019-05-07T18:56:13.357Z,100379.58
2019-05-07T18:58:42.624Z,100378.13
2019-05-07T19:01:13.505Z,100377.98
2019-05-07T19:03:42.221Z,100384.54
2019-05-07T19:06:13.426Z,100375.73
2019-05-07T19:08:42.858Z,100378.13
2019-05-07T19:11:12.817Z,100379.56
2019-05-07T19:13:42.949Z,100384.14
2019-05-07T19:16:12.879Z,100382.00
2019-05-07T19:18:43.253Z,100387.28
2019-05-07T19:21:13.412Z,100384.05
2019-05-07T19:23:43.640Z,100385.60
2019-05-07T19:26:13.874Z,100391.48
2019-05-07T19:28:44.364Z,100388.52
2019-05-07T19:31:32.561Z,100393.08
2019-05-07T19:34:03.389Z,100388.66
2019-05-07T19:36:33.889Z,100389.70
2019-05-07T19:39:05.669Z,100388.32
2019-05-07T19:41:35.930Z,100388.52
2019-05-07T19:44:06.246Z,100388.70
2019-05-07T19:46:36.716Z,100387.41
2019-05-07T19:49:07.233Z,100380.43
2019-05-07T19:52:33.141Z,100382.40
2019-05-07T19:55:04.801Z,100387.41
2019-05-07T19:57:39.095Z,100376.89
2019-05-07T20:00:12.011Z,100375.20
2019-05-07T20:02:52.718Z,100378.52
2019-05-07T20:05:21.662Z,100374.08
2019-05-07T20:07:55.224Z,100370.61
2019-05-07T20:10:29.619Z,100369.69
2019-05-07T20:12:58.516Z,100370.22
2019-05-07T20:15:27.412Z,100370.16
2019-05-07T20:17:57.231Z,100379.02
2019-05-07T20:20:26.925Z,100368.69
2019-05-07T20:22:56.942Z,100367.76
2019-05-07T20:25:27.427Z,100372.92
2019-05-07T20:27:56.601Z,100369.69
2019-05-07T20:30:25.481Z,100367.81
2019-05-07T20:32:54.161Z,100365.74
2019-05-07T20:35:23.767Z,100366.88
2019-05-07T20:37:53.204Z,100358.16
2019-05-07T20:40:22.809Z,100355.22
2019-05-07T20:42:52.527Z,100352.68
2019-05-07T20:45:23.896Z,100347.91
2019-05-07T20:47:53.289Z,100335.20
2019-05-07T20:50:22.351Z,100333.00
2019-05-07T20:52:52.432Z,100321.54
2019-05-07T20:55:43.114Z,100321.23
2019-05-07T20:58:12.891Z,100317.63
2019-05-07T21:00:43.413Z,100312.43
2019-05-07T21:03:23.751Z,100305.19
2019-05-07T21:05:54.533Z,100302.61
2019-05-07T21:08:23.276Z,100300.07
2019-05-07T21:10:53.636Z,100296.63
2019-05-07T21:13:33.920Z,100307.27
2019-05-07T21:15:52.846Z,100299.84
2019-05-07T21:18:23.232Z,100299.96
2019-05-07T21:20:52.985Z,100292.45
2019-05-07T21:23:23.109Z,100289.80
2019-05-07T21:25:52.762Z,100285.34
2019-05-07T21:28:21.695Z,100280.48
2019-05-07T21:30:52.129Z,100282.02
2019-05-07T21:33:22.766Z,100283.08
2019-05-07T21:35:52.294Z,100283.74
2019-05-07T21:38:22.423Z,100281.31
2019-05-07T21:40:51.302Z,100284.17
2019-05-07T21:43:22.252Z,100278.31
2019-05-07T21:45:50.106Z,100278.00
2019-05-07T21:48:18.686Z,100277.73
2019-05-07T21:50:47.220Z,100278.31
2019-05-07T21:53:34.025Z,100272.73
2019-05-07T21:56:07.214Z,100270.66
2019-05-07T21:58:49.529Z,100264.28
2019-05-07T22:01:37.900Z,100263.19
2019-05-07T22:04:06.541Z,100256.46
2019-05-07T22:06:35.114Z,100250.64
2019-05-07T22:09:05.134Z,100244.00
2019-05-07T22:11:33.671Z,100239.27
2019-05-07T22:14:02.371Z,100237.94
2019-05-07T22:16:32.827Z,100233.95
2019-05-07T22:19:02.689Z,100230.82
2019-05-07T22:21:33.910Z,100234.70
2019-05-07T22:24:02.788Z,100235.94
2019-05-07T22:26:32.340Z,100236.41
2019-05-07T22:29:03.115Z,100237.47
2019-05-07T22:31:33.022Z,100235.01
2019-05-07T22:34:03.231Z,100223.98
2019-05-07T22:36:32.691Z,100223.52
2019-05-07T22:39:01.976Z,100218.39
2019-05-07T22:41:31.889Z,100209.36
2019-05-07T22:44:02.534Z,100200.33
2019-05-07T22:46:32.682Z,100195.17
2019-05-07T22:49:03.113Z,100193.56
2019-05-07T22:51:31.847Z,100187.53
2019-05-07T22:54:04.170Z,100186.39
2019-05-07T22:56:49.016Z,100178.60
2019-05-07T22:59:17.863Z,100178.75
2019-05-07T23:01:46.439Z,100178.28
2019-05-07T23:04:14.959Z,100174.77
2019-05-07T23:06:43.727Z,100176.09
2019-05-07T23:09:12.851Z,100167.26
2019-05-07T23:11:41.556Z,100170.39
2019-05-07T23:14:11.818Z,100164.52
2019-05-07T23:16:40.455Z,100164.39
2019-05-07T23:19:09.024Z,100155.00
2019-05-07T23:21:37.639Z,100153.08
2019-05-07T23:24:06.207Z,100152.87
2019-05-07T23:26:47.313Z,100149.42
2019-05-07T23:29:05.105Z,100135.44
2019-05-07T23:31:33.677Z,100135.53
2019-05-07T23:34:02.247Z,100134.73
2019-05-07T23:36:30.827Z,100128.22
2019-05-07T23:38:59.438Z,100117.02
2019-05-07T23:41:32.963Z,100121.27
2019-05-07T23:44:18.651Z,100116.69
2019-05-07T23:46:47.352Z,100110.77
2019-05-07T23:49:15.985Z,100113.69
2019-05-07T23:51:44.660Z,100106.47
2019-05-07T23:54:13.236Z,100103.69
2019-05-07T23:56:42.820Z,100102.63
2019-05-07T23:59:12.755Z,100096.44
